Strona główna
METAR-TAF:

METAR-TAF

Lotnisko :

Port lotniczy Maastricht Aachen

Maastricht Akwizgran, Holandia

Szerokość geograficzna: 50-55N, Długość geograficzna: 005-47E, wysokość: 114 m

Aktualna obserwacja pogody

Raport powstał 18 minut temu, godzina 19:55 UTC
Wiatr 3 kt od zachodnio-północny zachód, zmienny między zachodnio-południowy zachód i północno-północny zachód
Temperatura 16°C
Wilgotność 72%
Ciśnienie 1019 hPa
Widzialność 10 km lub więcej
Zachmurzenie całkowite na wysokości 3500 ft

METAR: EHBK 151955Z AUTO 30003KT 250V340 9999 OVC035 16/11 Q1019 NOSIG

czas: 22:13 (20:13 UTC)

Prognoza

Raport powstał 3 godziny i 4 minut temu, godzina 17:09 UTC
Prognoza ważna od 15 godzina 18 UTC do 16 godzina 24 UTC
Wiatr 5 kt od północno-północny zachód
Widzialność 10 km lub więcej
Przerywane chmury na wysokości 3000 ft
Prawdopodobieństwo 30% :
Przejściowo
od 16 godzina 04 UTC do 16 godzina 09 UTC
Przerywane chmury na wysokości 1400 ft

TAF: EHBK 151709Z 1518/1624 34005KT 9999 BKN030 PROB30 TEMPO 1604/1609 BKN014

Obserwacja i prognoza pogody dla ponad 4000 lotnisk (raport METAR i TAF).

Dostępne stacje oznaczono żółtymi i czerwonymi punktami na mapie.

Najedź kursorem aby zobaczyć nazwę stacji.

Kliknij aby zobaczyć obserwacje i prognozy pogody.

Aby zmienić mapę: kliknij na zielony przycisk z czarnym krzyżykiem, aby powiększyć; na zielony przycisk z myślnikiem, aby pomniejszyć; na zielone strzałki, aby przejść do map sąsiednich.


METAR-TAF: